Time;durP1;ratioP1;P1;durP2;ratioP2;P2;SDS_P1;SDS_P2;PMS_P1;PMS_P2;Temp;Humidity;BMP_temperature;BMP_pressure;BME280_temperature;BME280_humidity;BME280_pressure;Samples;Min_cycle;Max_cycle;Signal;HPM_P1;HPM_P2
2021/04/09 05:23:59;;;;;;;3.90;3.10;;;0.80;82.40;;;;;;6250567;22;20212;-87
2021/04/09 05:26:52;;;;;;;4.47;2.10;;;0.90;82.30;;;;;;5017378;28;20231;-83
2021/04/09 05:29:20;;;;;;;3.77;1.90;;;0.90;82.70;;;;;;5015931;28;20224;-83
2021/04/09 05:31:51;;;;;;;6.20;2.50;;;0.90;81.70;;;;;;5004688;28;20203;-79
2021/04/09 05:37:42;;;;;;;4.10;2.30;;;1.00;81.40;;;;;;5024295;28;20262;-79
2021/04/09 05:43:31;;;;;;;4.73;2.37;;;1.20;80.30;;;;;;5056945;28;20201;-79
2021/04/09 05:46:53;;;;;;;6.97;2.40;;;1.20;79.80;;;;;;5057377;28;20195;-81
2021/04/09 05:49:19;;;;;;;3.80;2.20;;;1.30;79.10;;;;;;5050429;28;20313;-80
2021/04/09 05:51:51;;;;;;;4.90;2.20;;;1.50;79.50;;;;;;5055752;28;20195;-80
2021/04/09 05:54:17;;;;;;;6.80;2.13;;;1.50;78.30;;;;;;5058083;28;20572;-81
2021/04/09 05:56:44;;;;;;;4.60;2.20;;;1.60;77.70;;;;;;5059189;28;20221;-80
2021/04/09 05:59:11;;;;;;;3.33;1.97;;;1.60;77.80;;;;;;5057239;28;20242;-80
2021/04/09 06:01:37;;;;;;;8.87;2.30;;;1.80;78.20;;;;;;5057806;28;20207;-80
2021/04/09 06:04:04;;;;;;;4.20;2.03;;;1.90;76.80;;;;;;5057576;28;20266;-81
2021/04/09 06:06:30;;;;;;;4.97;2.30;;;2.00;77.10;;;;;;5057819;28;20201;-80
2021/04/09 06:08:56;;;;;;;3.30;2.10;;;2.20;74.90;;;;;;5058449;28;20249;-81
2021/04/09 06:11:53;;;;;;;6.03;2.53;;;3.20;72.40;;;;;;5058964;28;20202;-81
2021/04/09 06:14:20;;;;;;;4.97;2.20;;;4.10;64.90;;;;;;5058442;28;20623;-81
2021/04/09 06:16:46;;;;;;;5.30;2.47;;;4.50;61.70;;;;;;5058977;28;20578;-81
2021/04/09 06:19:13;;;;;;;10.53;2.80;;;4.50;57.80;;;;;;5058626;28;20236;-81
2021/04/09 06:21:39;;;;;;;4.73;1.93;;;4.80;57.30;;;;;;5059504;28;20205;-82
2021/04/09 06:24:07;;;;;;;5.33;2.03;;;5.10;56.10;;;;;;5058739;28;20225;-83
2021/04/09 06:26:34;;;;;;;7.07;2.27;;;6.10;52.20;;;;;;5059525;28;20206;-83
2021/04/09 06:29:00;;;;;;;4.27;2.03;;;7.60;46.40;;;;;;5059522;28;20554;-85
2021/04/09 06:34:57;;;;;;;4.65;2.08;;;9.70;38.70;;;;;;5059949;28;20621;-85
2021/04/09 06:37:32;;;;;;;8.80;2.45;;;11.00;34.60;;;;;;5063007;28;20198;-85
2021/04/09 06:45:07;;;;;;;7.03;2.00;;;13.70;27.80;;;;;;5036993;28;20665;-85
2021/04/09 06:47:34;;;;;;;7.43;2.72;;;13.60;26.70;;;;;;5039032;28;20704;-87
2021/04/09 06:50:01;;;;;;;7.53;2.17;;;13.00;28.00;;;;;;5042989;28;20190;-84
2021/04/09 06:52:28;;;;;;;8.77;2.55;;;12.60;27.00;;;;;;5040371;28;20226;-84
2021/04/09 06:58:19;;;;;;;6.03;2.05;;;12.30;27.90;;;;;;5037403;28;20233;-87
2021/04/09 07:00:49;;;;;;;5.93;2.00;;;12.50;29.60;;;;;;5036791;28;20207;-87
2021/04/09 07:03:16;;;;;;;7.47;2.00;;;12.50;28.00;;;;;;5036857;28;20720;-87
2021/04/09 07:05:43;;;;;;;7.68;1.90;;;12.30;26.90;;;;;;5036663;28;20685;-87
2021/04/09 07:08:09;;;;;;;8.35;2.03;;;12.60;27.90;;;;;;5034862;28;20234;-88
2021/04/09 07:10:36;;;;;;;6.47;1.80;;;12.60;27.10;;;;;;5037328;28;20199;-84
2021/04/09 07:13:06;;;;;;;5.47;1.80;;;12.80;26.00;;;;;;5037494;28;20355;-83
2021/04/09 07:15:38;;;;;;;4.97;1.70;;;12.40;25.70;;;;;;5040237;28;20511;-84
2021/04/09 07:21:33;;;;;;;4.80;1.58;;;12.30;25.60;;;;;;5039454;28;20170;-86
2021/04/09 07:24:19;;;;;;;6.30;1.77;;;12.00;25.30;;;;;;5038576;28;20221;-85
2021/04/09 07:26:47;;;;;;;4.22;1.40;;;11.60;27.70;;;;;;5037361;28;20193;-86
2021/04/09 07:29:36;;;;;;;3.90;1.40;;;11.50;27.20;;;;;;5035770;28;20321;-86
2021/04/09 07:35:56;;;;;;;2.58;1.30;;;11.60;25.00;;;;;;5035644;28;20194;-86
2021/04/09 07:41:29;;;;;;;5.75;1.70;;;12.60;22.30;;;;;;5238487;22;20237;-84
2021/04/09 07:43:56;;;;;;;3.58;1.60;;;12.90;20.70;;;;;;5062967;28;20255;-86
2021/04/09 07:49:48;;;;;;;4.00;1.50;;;13.40;20.90;;;;;;5066604;28;20240;-86
2021/04/09 07:52:16;;;;;;;3.17;1.50;;;13.00;21.10;;;;;;5065596;28;20339;-85
2021/04/09 07:58:20;;;;;;;2.03;1.40;;;12.70;21.00;;;;;;5064936;28;20225;-85
2021/04/09 08:00:48;;;;;;;3.05;1.33;;;12.50;23.20;;;;;;5065675;28;20330;-85
2021/04/09 08:03:37;;;;;;;4.47;1.40;;;12.80;19.80;;;;;;5083497;28;20288;-85
2021/04/09 08:06:56;;;;;;;4.47;1.60;;;13.40;19.80;;;;;;5084155;28;20226;-86
2021/04/09 08:09:24;;;;;;;2.47;1.38;;;13.60;18.70;;;;;;5075756;28;20324;-86
2021/04/09 08:11:51;;;;;;;2.83;1.30;;;13.70;19.80;;;;;;5080759;28;20205;-85
2021/04/09 08:14:25;;;;;;;1.98;1.50;;;13.80;18.90;;;;;;5083264;28;20288;-85
2021/04/09 08:16:55;;;;;;;3.15;1.65;;;13.70;21.40;;;;;;5083104;28;20181;-86
2021/04/09 08:19:24;;;;;;;4.40;1.50;;;13.70;19.90;;;;;;5081471;28;20228;-85
2021/04/09 08:21:58;;;;;;;2.92;1.40;;;13.80;19.80;;;;;;5084734;28;20204;-85
2021/04/09 08:24:28;;;;;;;2.25;1.60;;;14.00;18.60;;;;;;5084432;28;20228;-85
2021/04/09 08:26:54;;;;;;;5.28;1.70;;;13.90;18.40;;;;;;5088496;28;20201;-85
2021/04/09 08:29:22;;;;;;;5.72;1.83;;;13.70;19.90;;;;;;5087834;28;20264;-85
2021/04/09 08:31:50;;;;;;;5.03;1.55;;;13.80;18.70;;;;;;5082694;28;20208;-85
2021/04/09 08:34:20;;;;;;;2.50;1.30;;;14.40;17.90;;;;;;5085592;28;20733;-86
2021/04/09 08:36:47;;;;;;;4.85;1.67;;;14.50;17.50;;;;;;5081209;28;20201;-86
2021/04/09 08:39:18;;;;;;;1.70;1.50;;;14.70;18.00;;;;;;5083201;28;20232;-86
2021/04/09 08:41:48;;;;;;;4.30;1.45;;;14.40;18.10;;;;;;5078077;28;20201;-85
2021/04/09 08:48:12;;;;;;;2.17;1.38;;;14.30;16.80;;;;;;5084435;28;20164;-85
2021/04/09 08:50:42;;;;;;;2.45;1.35;;;14.40;18.20;;;;;;5078852;28;20287;-85
2021/04/09 08:53:09;;;;;;;3.58;1.42;;;14.80;19.90;;;;;;5077652;28;20194;-85
2021/04/09 08:55:39;;;;;;;5.43;1.55;;;15.50;17.40;;;;;;5078053;28;20224;-85
2021/04/09 08:58:16;;;;;;;2.28;1.65;;;16.70;16.60;;;;;;5079181;28;20251;-85
2021/04/09 09:04:41;;;;;;;3.13;1.65;;;19.30;12.00;;;;;;5083430;28;20160;-83
2021/04/09 09:10:55;;;;;;;2.55;1.63;;;23.20;10.40;;;;;;5084197;28;20291;-81
2021/04/09 09:13:31;;;;;;;2.55;1.80;;;24.40;9.20;;;;;;5083920;28;20235;-80
2021/04/09 09:16:00;;;;;;;2.55;1.80;;;24.40;8.60;;;;;;5064481;28;20181;-80
2021/04/09 09:18:45;;;;;;;3.35;2.00;;;24.60;8.90;;;;;;5063383;28;20778;-80
2021/04/09 09:21:23;;;;;;;3.03;2.03;;;26.40;6.20;;;;;;5065084;28;20223;-80
2021/04/09 09:23:52;;;;;;;2.97;2.10;;;26.10;6.60;;;;;;5064946;28;20236;-80
2021/04/09 09:26:21;;;;;;;3.80;1.83;;;26.10;5.60;;;;;;5064059;28;20201;-80
2021/04/09 09:28:48;;;;;;;3.10;2.10;;;26.10;6.80;;;;;;5066560;28;20229;-80
2021/04/09 09:31:27;;;;;;;4.30;2.28;;;26.40;6.40;;;;;;5064543;28;20197;-80
2021/04/09 09:34:44;;;;;;;4.68;2.40;;;26.10;7.00;;;;;;5062697;28;20266;-80
2021/04/09 09:37:12;;;;;;;3.85;2.40;;;26.10;6.00;;;;;;5063261;28;20255;-81
2021/04/09 09:43:01;;;;;;;2.33;2.13;;;26.20;6.70;;;;;;5064330;28;20227;-79
2021/04/09 09:45:35;;;;;;;6.82;2.50;;;26.20;6.20;;;;;;5064569;28;20385;-80
2021/04/09 09:51:30;;;;;;;4.00;2.42;;;27.20;6.70;;;;;;5056629;28;20623;-81
2021/04/09 09:53:57;;;;;;;3.53;2.55;;;27.10;5.90;;;;;;5057234;28;20233;-82
2021/04/09 09:56:27;;;;;;;3.08;2.30;;;27.10;4.70;;;;;;5056333;28;20289;-80
2021/04/09 09:58:54;;;;;;;6.65;2.30;;;26.60;5.50;;;;;;5055843;28;20769;-80
2021/04/09 10:01:24;;;;;;;2.40;2.17;;;26.70;5.70;;;;;;5056235;28;20201;-80
2021/04/09 10:03:52;;;;;;;3.58;2.17;;;26.70;6.70;;;;;;5056118;28;20225;-80
2021/04/09 10:09:40;;;;;;;4.45;2.22;;;26.60;5.50;;;;;;5057028;28;20262;-81
2021/04/09 10:12:07;;;;;;;3.80;2.47;;;25.90;6.70;;;;;;5054431;28;20641;-80
2021/04/09 10:18:05;;;;;;;2.65;2.22;;;24.70;7.70;;;;;;5055667;28;20304;-81
2021/04/09 10:20:32;;;;;;;3.13;2.10;;;25.60;8.20;;;;;;5055000;28;20212;-80
2021/04/09 10:22:58;;;;;;;3.17;2.08;;;24.60;5.90;;;;;;5054618;28;20270;-81
2021/04/09 10:25:28;;;;;;;3.80;2.10;;;24.20;6.70;;;;;;5055510;28;20193;-80
2021/04/09 10:27:54;;;;;;;3.35;2.28;;;24.90;6.50;;;;;;5054523;28;20236;-79
2021/04/09 10:30:26;;;;;;;4.90;2.20;;;25.60;7.80;;;;;;5055500;28;20197;-79
2021/04/09 10:32:52;;;;;;;5.35;2.10;;;26.10;6.70;;;;;;5054710;28;20233;-79
2021/04/09 10:35:24;;;;;;;3.35;2.10;;;25.30;6.30;;;;;;5054906;28;20292;-79
2021/04/09 10:37:51;;;;;;;2.08;1.83;;;25.00;6.50;;;;;;5054409;28;20232;-79
2021/04/09 10:40:17;;;;;;;2.10;1.88;;;24.80;11.10;;;;;;5078348;22;20320;-79
2021/04/09 10:42:59;;;;;;;3.42;2.10;;;25.40;6.80;;;;;;5055276;28;20743;-80
2021/04/09 10:45:25;;;;;;;3.63;2.05;;;25.50;6.50;;;;;;5055677;28;20186;-80
2021/04/09 10:47:53;;;;;;;3.97;2.05;;;24.80;8.30;;;;;;5055503;28;20225;-86
2021/04/09 10:53:43;;;;;;;2.20;1.75;;;24.90;8.60;;;;;;5057091;28;20301;-80
2021/04/09 10:56:10;;;;;;;3.10;1.60;;;24.90;6.20;;;;;;5055974;28;20200;-81
2021/04/09 10:58:40;;;;;;;4.38;1.77;;;24.60;7.30;;;;;;5056017;28;20237;-81
2021/04/09 11:01:07;;;;;;;4.10;1.67;;;24.60;6.70;;;;;;5056796;28;20202;-81
2021/04/09 11:03:37;;;;;;;2.95;1.60;;;21.80;8.90;;;;;;5054560;28;20301;-79
2021/04/09 11:06:04;;;;;;;4.97;1.88;;;21.30;10.30;;;;;;5054739;28;20197;-79
2021/04/09 11:08:32;;;;;;;3.88;2.20;;;22.10;10.20;;;;;;5058208;28;20571;-80
2021/04/09 11:11:08;;;;;;;5.78;1.70;;;21.80;12.10;;;;;;5063080;28;20197;-78
2021/04/09 11:13:36;;;;;;;2.13;1.60;;;21.60;10.30;;;;;;5056047;28;20715;-88
2021/04/09 11:16:04;;;;;;;2.72;1.40;;;21.30;9.70;;;;;;5060539;28;20201;-88
2021/04/09 11:18:50;;;;;;;2.88;1.63;;;21.00;11.60;;;;;;5060279;28;20226;-85
2021/04/09 11:21:17;;;;;;;3.92;1.80;;;20.80;13.00;;;;;;5059480;28;20265;-84
2021/04/09 11:23:44;;;;;;;3.65;1.50;;;20.60;11.40;;;;;;5060437;28;20576;-84
2021/04/09 11:26:20;;;;;;;1.90;1.70;;;20.40;11.20;;;;;;5058779;28;20202;-84
2021/04/09 11:28:53;;;;;;;2.70;1.65;;;20.10;11.10;;;;;;5066443;28;20229;-82
2021/04/09 11:31:24;;;;;;;3.33;1.70;;;19.80;10.80;;;;;;5061216;28;20190;-83
2021/04/09 11:34:06;;;;;;;2.20;1.67;;;19.50;11.20;;;;;;5058737;28;20308;-87
2021/04/09 11:36:46;;;;;;;6.75;1.80;;;19.60;10.70;;;;;;5059303;28;20197;-87
2021/04/09 11:39:15;;;;;;;1.65;1.55;;;19.30;10.50;;;;;;5057526;28;20229;-87
2021/04/09 11:41:47;;;;;;;2.63;1.80;;;19.30;10.50;;;;;;5057569;28;20289;-86
2021/04/09 11:44:33;;;;;;;2.60;1.70;;;19.40;13.00;;;;;;5065360;28;20223;-87
2021/04/09 11:47:19;;;;;;;3.42;1.65;;;19.20;11.30;;;;;;5067098;28;20243;-90
2021/04/09 11:49:46;;;;;;;3.47;1.83;;;19.20;10.40;;;;;;5070917;28;20304;-86
2021/04/09 11:52:13;;;;;;;4.35;1.80;;;19.40;12.90;;;;;;5047980;28;20201;-86
2021/04/09 11:54:40;;;;;;;2.00;1.65;;;19.40;10.60;;;;;;5053999;28;20198;-85
2021/04/09 11:57:44;;;;;;;3.58;2.33;;;19.50;10.60;;;;;;5048428;28;20285;-86
2021/04/09 12:00:19;;;;;;;3.03;2.00;;;19.40;10.60;;;;;;5062927;28;20197;-84
2021/04/09 12:02:49;;;;;;;4.90;1.80;;;19.50;12.40;;;;;;5081986;28;20267;-82
2021/04/09 12:05:21;;;;;;;5.70;1.83;;;19.50;10.60;;;;;;5062058;28;20641;-84
2021/04/09 12:11:10;;;;;;;1.88;1.60;;;19.40;12.10;;;;;;5063339;28;20196;-84
2021/04/09 12:13:44;;;;;;;6.50;1.85;;;19.50;10.70;;;;;;5063314;28;20229;-85
2021/04/09 12:16:10;;;;;;;10.75;2.00;;;19.60;10.70;;;;;;5065126;28;20716;-85
2021/04/09 12:18:39;;;;;;;4.07;1.90;;;19.60;10.70;;;;;;5062412;28;20225;-85
2021/04/09 12:21:32;;;;;;;4.90;2.20;;;19.90;10.90;;;;;;5065667;28;20194;-85
2021/04/09 12:23:59;;;;;;;2.35;1.65;;;19.80;10.80;;;;;;5061931;28;20226;-85
2021/04/09 12:26:33;;;;;;;2.92;1.55;;;19.60;10.70;;;;;;5068287;28;20193;-85
2021/04/09 12:29:00;;;;;;;3.47;1.63;;;19.50;10.60;;;;;;5062251;28;20228;-85
2021/04/09 12:34:49;;;;;;;2.75;1.60;;;19.50;10.70;;;;;;5061031;28;20233;-88
2021/04/09 12:37:15;;;;;;;4.55;2.33;;;19.50;10.70;;;;;;5065874;28;20554;-85
2021/04/09 12:39:41;;;;;;;2.53;1.92;;;19.60;12.10;;;;;;5063564;28;20316;-85
2021/04/09 12:42:09;;;;;;;2.95;2.05;;;19.50;10.70;;;;;;5065497;28;20221;-85
2021/04/09 12:44:36;;;;;;;4.80;1.80;;;19.40;10.50;;;;;;5062437;28;20555;-87
2021/04/09 12:50:25;;;;;;;3.45;1.90;;;18.60;10.10;;;;;;5045210;28;20259;-88
2021/04/09 12:52:52;;;;;;;2.83;1.80;;;18.40;12.50;;;;;;5060355;28;20705;-88
2021/04/09 12:55:18;;;;;;;3.85;2.10;;;18.50;11.40;;;;;;5063763;28;20285;-87
2021/04/09 12:57:45;;;;;;;6.72;1.88;;;18.70;11.70;;;;;;5061307;28;20230;-88
2021/04/09 13:00:14;;;;;;;3.72;1.88;;;18.80;11.80;;;;;;5046147;28;20567;-87
2021/04/09 13:02:40;;;;;;;4.10;1.85;;;18.70;10.50;;;;;;5047574;28;20224;-87
2021/04/09 13:05:07;;;;;;;2.28;1.80;;;18.90;12.30;;;;;;5046190;28;20650;-87
2021/04/09 13:07:33;;;;;;;4.00;1.83;;;18.90;10.20;;;;;;5065618;28;20630;-90
2021/04/09 13:10:00;;;;;;;5.38;1.90;;;18.80;11.70;;;;;;5057626;28;20312;-88
2021/04/09 13:12:28;;;;;;;4.45;2.00;;;18.80;13.70;;;;;;5049092;28;20248;-87
2021/04/09 13:14:54;;;;;;;3.08;2.10;;;18.80;10.20;;;;;;5044681;28;20568;-88
2021/04/09 13:17:22;;;;;;;4.15;1.92;;;18.60;10.10;;;;;;5051227;28;20240;-87
2021/04/09 13:19:48;;;;;;;2.83;1.73;;;18.60;11.20;;;;;;5045404;28;20539;-87
2021/04/09 13:22:14;;;;;;;4.30;2.10;;;18.60;10.10;;;;;;5046862;28;20714;-87
2021/04/09 13:24:41;;;;;;;5.85;2.20;;;18.40;10.00;;;;;;5050184;28;20203;-87
2021/04/09 13:27:15;;;;;;;4.25;2.33;;;18.50;10.00;;;;;;5047725;28;20202;-86
2021/04/09 13:29:44;;;;;;;4.00;2.10;;;18.40;10.80;;;;;;5052322;28;20225;-88
2021/04/09 13:32:16;;;;;;;3.67;1.90;;;18.50;10.00;;;;;;5061122;28;20543;-87
2021/04/09 13:34:55;;;;;;;3.53;1.90;;;18.50;10.00;;;;;;5056666;28;20201;-88
2021/04/09 13:37:26;;;;;;;3.08;2.10;;;18.40;10.20;;;;;;5057439;28;20328;-87
2021/04/09 13:39:53;;;;;;;2.92;2.00;;;18.40;10.00;;;;;;5054893;28;20282;-87
2021/04/09 13:42:19;;;;;;;3.83;1.83;;;18.40;9.90;;;;;;5050901;28;20233;-87
2021/04/09 13:44:50;;;;;;;2.88;1.90;;;18.30;11.10;;;;;;5054420;28;20202;-87
2021/04/09 13:47:17;;;;;;;4.68;2.10;;;18.30;11.50;;;;;;5057191;28;20221;-87
2021/04/09 13:49:43;;;;;;;5.40;2.20;;;18.30;12.00;;;;;;5059267;28;20240;-90
2021/04/09 13:52:11;;;;;;;4.15;2.10;;;18.20;12.10;;;;;;5052685;28;20205;-89
2021/04/09 13:54:43;;;;;;;3.22;1.98;;;18.10;11.30;;;;;;5058799;28;20218;-87
2021/04/09 13:57:10;;;;;;;2.22;1.83;;;18.20;11.20;;;;;;5053867;28;20216;-91
2021/04/09 13:59:36;;;;;;;3.40;1.60;;;18.20;9.80;;;;;;5057124;28;20612;-89
2021/04/09 14:02:03;;;;;;;3.28;2.00;;;18.30;12.00;;;;;;5059109;28;20198;-87
2021/04/09 14:04:31;;;;;;;3.22;1.70;;;18.30;11.40;;;;;;5061961;28;21151;-87
2021/04/09 14:06:57;;;;;;;3.70;2.10;;;18.30;10.50;;;;;;5059866;28;20190;-88
2021/04/09 14:09:25;;;;;;;2.88;1.73;;;18.20;10.70;;;;;;5063346;28;20229;-87
2021/04/09 14:11:51;;;;;;;4.35;1.90;;;18.30;11.00;;;;;;5060095;28;20208;-87
2021/04/09 14:14:17;;;;;;;4.95;1.92;;;18.20;9.80;;;;;;5058021;28;20217;-86
2021/04/09 14:16:44;;;;;;;3.60;2.10;;;18.30;9.90;;;;;;5057057;28;20297;-87
2021/04/09 14:19:12;;;;;;;3.83;2.25;;;18.20;9.80;;;;;;5060284;28;20610;-87
2021/04/09 14:21:38;;;;;;;5.47;2.15;;;18.20;9.80;;;;;;5057349;28;20198;-86
2021/04/09 14:24:06;;;;;;;2.63;1.90;;;18.30;10.70;;;;;;5057890;28;20225;-86
2021/04/09 14:26:33;;;;;;;2.08;1.70;;;18.40;9.90;;;;;;5066832;28;20194;-86
2021/04/09 14:29:02;;;;;;;3.92;1.77;;;18.20;9.80;;;;;;5061147;28;20222;-86
2021/04/09 14:31:28;;;;;;;2.20;1.90;;;18.20;9.90;;;;;;5061811;28;20204;-86
2021/04/09 14:33:54;;;;;;;4.03;1.83;;;18.10;9.70;;;;;;5058810;28;20236;-86
2021/04/09 14:36:21;;;;;;;3.38;1.73;;;17.80;9.50;;;;;;5066304;28;20208;-88
2021/04/09 14:38:47;;;;;;;3.83;2.30;;;17.80;9.50;;;;;;5039469;28;20321;-88
2021/04/09 14:44:36;;;;;;;3.72;1.90;;;18.00;10.30;;;;;;5067516;28;20215;-88
2021/04/09 14:47:03;;;;;;;3.28;1.83;;;18.00;9.70;;;;;;5062667;28;20202;-88
2021/04/09 14:49:29;;;;;;;5.05;2.03;;;18.20;9.80;;;;;;5058560;28;20222;-89
2021/04/09 14:51:56;;;;;;;4.15;2.10;;;18.10;9.70;;;;;;5056431;28;20224;-89
2021/04/09 14:54:22;;;;;;;3.30;1.90;;;18.00;9.70;;;;;;5059284;28;20747;-88
2021/04/09 14:56:49;;;;;;;4.20;2.13;;;17.90;9.60;;;;;;5059507;28;20285;-86
2021/04/09 15:02:39;;;;;;;3.40;1.80;;;17.80;9.50;;;;;;5051003;28;20582;-88
2021/04/09 15:05:07;;;;;;;6.60;1.85;;;17.80;9.60;;;;;;5048644;28;20614;-87
2021/04/09 15:07:34;;;;;;;3.78;1.95;;;17.70;9.50;;;;;;5034348;28;20227;-88
2021/04/09 15:10:47;;;;;;;3.45;1.83;;;17.50;9.40;;;;;;5038084;28;20222;-88
2021/04/09 15:13:13;;;;;;;4.88;2.00;;;17.30;9.20;;;;;;5052679;28;20229;-89
2021/04/09 15:19:03;;;;;;;5.00;2.10;;;17.10;10.10;;;;;;5059183;28;20264;-84
2021/04/09 15:21:29;;;;;;;5.35;2.15;;;17.10;11.60;;;;;;5054936;28;20263;-84
2021/04/09 15:24:03;;;;;;;6.60;2.00;;;17.20;12.20;;;;;;5056197;28;20225;-84
2021/04/09 15:26:29;;;;;;;2.42;1.80;;;17.30;11.60;;;;;;5055126;28;20193;-84
2021/04/09 15:28:56;;;;;;;2.70;1.95;;;17.20;11.90;;;;;;5054922;28;20255;-85
2021/04/09 15:31:23;;;;;;;4.00;2.10;;;17.20;12.20;;;;;;5055136;28;20202;-88
2021/04/09 15:33:50;;;;;;;6.53;2.20;;;17.20;12.30;;;;;;5054429;28;20244;-87
2021/04/09 15:36:17;;;;;;;4.10;2.17;;;17.20;13.10;;;;;;5055663;28;20197;-87
2021/04/09 15:38:43;;;;;;;4.90;1.92;;;17.30;11.60;;;;;;5055024;28;20233;-86
2021/04/09 15:41:09;;;;;;;4.55;2.10;;;17.10;11.30;;;;;;5055807;28;20217;-87
2021/04/09 15:43:36;;;;;;;6.53;2.10;;;17.10;11.80;;;;;;5054596;28;20230;-86
2021/04/09 15:46:02;;;;;;;3.20;1.90;;;17.00;12.00;;;;;;5054274;28;20204;-86
2021/04/09 15:51:52;;;;;;;8.27;2.13;;;16.90;12.70;;;;;;5057220;28;20184;-86
2021/04/09 15:54:18;;;;;;;6.22;2.33;;;16.70;12.80;;;;;;5057659;28;20286;-86
2021/04/09 15:56:58;;;;;;;7.00;2.35;;;16.60;12.70;;;;;;5056376;28;20671;-86
2021/04/09 16:02:47;;;;;;;27.50;21.25;;;16.60;12.40;;;;;;5055463;28;20360;-88
2021/04/09 16:05:14;;;;;;;10.40;6.68;;;16.50;13.00;;;;;;5057245;28;20289;-88
2021/04/09 16:11:03;;;;;;;6.18;2.20;;;16.40;13.20;;;;;;5054613;28;20173;-87
2021/04/09 16:13:30;;;;;;;5.38;2.08;;;16.40;12.20;;;;;;5053920;28;20630;-88
2021/04/09 16:15:56;;;;;;;6.75;2.00;;;16.50;12.10;;;;;;5054863;28;20288;-88
2021/04/09 16:18:23;;;;;;;4.45;2.28;;;16.40;11.50;;;;;;5054715;28;20669;-87
2021/04/09 16:20:49;;;;;;;10.68;8.73;;;16.40;11.50;;;;;;5055491;28;20198;-89
2021/04/09 16:23:16;;;;;;;4.68;2.00;;;16.40;12.60;;;;;;5052665;28;20230;-90
2021/04/09 16:25:43;;;;;;;5.45;2.42;;;16.30;12.30;;;;;;5052234;28;20194;-90
2021/04/09 16:28:11;;;;;;;3.45;2.72;;;16.20;12.20;;;;;;5053426;28;20238;-89
2021/04/09 16:30:38;;;;;;;6.35;2.20;;;16.00;12.30;;;;;;5051264;28;20209;-88
2021/04/09 16:33:04;;;;;;;5.03;2.95;;;16.00;11.90;;;;;;5053700;28;20313;-88
2021/04/09 16:35:44;;;;;;;6.28;2.83;;;15.90;12.20;;;;;;5053182;28;20208;-87
2021/04/09 16:38:11;;;;;;;4.97;2.42;;;15.70;13.20;;;;;;5060138;28;20283;-88
2021/04/09 16:40:37;;;;;;;3.78;2.30;;;15.50;14.10;;;;;;5078355;28;20292;-87
2021/04/09 16:43:04;;;;;;;6.30;2.40;;;15.40;13.30;;;;;;5076804;28;20236;-88
2021/04/09 16:45:33;;;;;;;4.88;2.70;;;15.30;14.60;;;;;;5077109;28;20586;-88
2021/04/09 16:47:59;;;;;;;2.67;2.30;;;15.20;13.90;;;;;;5080775;28;20312;-88
2021/04/09 16:50:34;;;;;;;4.13;2.30;;;15.20;13.60;;;;;;5081512;28;20239;-88
2021/04/09 16:53:01;;;;;;;6.07;3.72;;;15.00;14.60;;;;;;5081920;28;20267;-87
2021/04/09 16:55:27;;;;;;;3.60;2.40;;;14.90;14.90;;;;;;5082668;28;20284;-87
2021/04/09 16:58:01;;;;;;;6.75;3.03;;;14.80;14.80;;;;;;5082659;28;20718;-87
2021/04/09 17:03:51;;;;;;;4.50;2.60;;;14.50;15.10;;;;;;5082862;28;20239;-89
2021/04/09 17:07:00;;;;;;;5.43;2.40;;;14.40;16.30;;;;;;5081928;28;20205;-89
2021/04/09 17:09:52;;;;;;;5.97;2.72;;;14.40;16.10;;;;;;5082929;28;20257;-88
2021/04/09 17:19:56;;;;;;;6.68;2.50;;;13.90;16.60;;;;;;5091818;28;20220;-90
2021/04/09 17:22:24;;;;;;;6.05;2.40;;;13.80;17.20;;;;;;5091471;28;20204;-90
2021/04/09 17:24:53;;;;;;;6.75;2.42;;;13.80;16.70;;;;;;5088332;28;20261;-88
2021/04/09 17:27:19;;;;;;;5.78;2.65;;;13.70;17.50;;;;;;5085600;28;20261;-88
2021/04/09 17:29:46;;;;;;;5.43;2.30;;;13.70;17.80;;;;;;5086190;28;20655;-88
2021/04/09 17:32:13;;;;;;;5.50;3.35;;;13.60;17.40;;;;;;5084952;28;20231;-88
2021/04/09 17:34:39;;;;;;;6.40;2.65;;;13.60;17.90;;;;;;5086284;28;20664;-88
2021/04/09 17:37:07;;;;;;;6.65;3.58;;;13.50;18.00;;;;;;5085360;28;20201;-89
2021/04/09 17:39:34;;;;;;;7.68;3.50;;;13.40;18.60;;;;;;5085066;28;20229;-87
2021/04/09 17:45:23;;;;;;;4.57;2.63;;;13.30;18.40;;;;;;5083653;28;20165;-88
2021/04/09 17:47:49;;;;;;;5.60;3.22;;;13.10;18.70;;;;;;5083487;28;20243;-88
2021/04/09 17:50:18;;;;;;;9.48;3.60;;;12.90;19.00;;;;;;5084485;28;20802;-88
2021/04/09 17:52:45;;;;;;;6.80;2.80;;;12.80;20.30;;;;;;5083425;28;20247;-88
2021/04/09 17:55:13;;;;;;;5.53;3.50;;;12.60;19.20;;;;;;5084320;28;20197;-88
2021/04/09 17:57:39;;;;;;;6.45;3.38;;;12.50;19.80;;;;;;5083832;28;20260;-87
2021/04/09 18:00:08;;;;;;;6.63;3.42;;;12.50;19.80;;;;;;5084279;28;20250;-87
2021/04/09 18:02:35;;;;;;;6.13;3.58;;;12.30;19.80;;;;;;5084636;28;20232;-88
2021/04/09 18:08:31;;;;;;;9.70;2.97;;;12.20;20.80;;;;;;5084970;28;20605;-88
2021/04/09 18:14:24;;;;;;;5.97;3.42;;;12.00;21.40;;;;;;5085835;28;20228;-87
2021/04/09 18:17:03;;;;;;;5.53;2.80;;;12.00;23.30;;;;;;5084910;28;20672;-87
2021/04/09 18:19:29;;;;;;;15.02;5.43;;;12.00;23.30;;;;;;5084226;28;20284;-87
2021/04/09 18:21:55;;;;;;;13.43;4.88;;;12.00;25.30;;;;;;5083171;28;20205;-87
2021/04/09 18:31:24;;;;;;;11.85;4.40;;;11.80;25.10;;;;;;5074554;28;20251;-87
2021/04/09 18:33:51;;;;;;;11.60;4.50;;;11.70;24.20;;;;;;5037956;28;20235;-87
2021/04/09 18:36:49;;;;;;;8.90;4.63;;;11.60;25.10;;;;;;5064091;28;20213;-88
2021/04/09 18:47:05;;;;;;;9.98;6.50;;;11.40;27.00;;;;;;5739329;22;20235;-86
2021/04/09 18:49:32;;;;;;;9.48;5.85;;;11.30;26.20;;;;;;5065789;28;20236;-85
2021/04/09 18:52:05;;;;;;;13.07;5.68;;;11.20;27.40;;;;;;5064413;28;20194;-85
2021/04/09 18:54:32;;;;;;;9.20;4.97;;;11.10;28.60;;;;;;5061973;28;20224;-85
2021/04/09 18:56:58;;;;;;;9.43;4.95;;;11.10;29.50;;;;;;5061643;28;20198;-86
2021/04/09 18:59:25;;;;;;;8.48;5.50;;;11.00;27.60;;;;;;5062856;28;20600;-85
2021/04/09 19:01:51;;;;;;;12.20;4.93;;;11.00;28.10;;;;;;5062671;28;20530;-85
2021/04/09 19:04:19;;;;;;;8.60;4.55;;;10.90;28.90;;;;;;5062266;28;20233;-85
2021/04/09 19:06:46;;;;;;;8.80;5.35;;;10.90;29.60;;;;;;5062112;28;20262;-86
2021/04/09 19:09:12;;;;;;;12.00;5.35;;;10.90;27.30;;;;;;5061691;28;20603;-86
2021/04/09 19:11:47;;;;;;;11.57;5.40;;;10.90;29.30;;;;;;5060811;28;20200;-86
2021/04/09 19:14:13;;;;;;;7.60;5.05;;;10.80;29.20;;;;;;5062927;28;20245;-86
2021/04/09 19:16:40;;;;;;;9.73;4.78;;;10.60;27.60;;;;;;5064248;28;20191;-86
2021/04/09 19:19:13;;;;;;;12.30;5.30;;;10.50;29.40;;;;;;5063178;28;20225;-84
2021/04/09 19:21:40;;;;;;;10.98;5.85;;;10.50;30.10;;;;;;5062288;28;20190;-86
2021/04/09 19:24:07;;;;;;;9.38;5.65;;;10.40;30.90;;;;;;5053786;28;20221;-85
2021/04/09 19:26:34;;;;;;;13.73;5.80;;;10.40;30.30;;;;;;5042522;28;20198;-85
2021/04/09 19:29:01;;;;;;;13.73;6.78;;;10.30;31.20;;;;;;5051694;28;20226;-85
2021/04/09 19:31:27;;;;;;;11.23;6.35;;;10.30;32.10;;;;;;5045278;28;20210;-85
2021/04/09 19:33:53;;;;;;;14.70;7.38;;;10.20;32.60;;;;;;5042327;28;20230;-86
2021/04/09 19:37:00;;;;;;;13.98;6.93;;;10.10;31.60;;;;;;5041900;28;20674;-88
2021/04/09 19:39:28;;;;;;;14.55;9.10;;;10.00;32.40;;;;;;5039451;28;20309;-88
2021/04/09 19:41:54;;;;;;;17.35;8.15;;;9.90;32.00;;;;;;5022852;28;20221;-88
2021/04/09 19:44:26;;;;;;;16.85;7.75;;;9.90;34.00;;;;;;5046003;28;20233;-88
2021/04/09 19:47:08;;;;;;;14.30;6.85;;;9.80;33.50;;;;;;5044992;28;20256;-89
2021/04/09 19:49:34;;;;;;;9.93;6.05;;;9.70;33.10;;;;;;5041274;28;20301;-89
2021/04/09 19:52:01;;;;;;;10.95;6.35;;;9.60;33.10;;;;;;5043331;28;20626;-89
2021/04/09 19:54:29;;;;;;;11.18;6.38;;;9.50;34.70;;;;;;5041852;28;20242;-87
2021/04/09 19:56:56;;;;;;;9.55;5.85;;;9.50;36.10;;;;;;5048083;28;20556;-88
2021/04/09 19:59:26;;;;;;;14.05;6.30;;;9.40;34.20;;;;;;5052874;28;20273;-89
2021/04/09 20:01:55;;;;;;;8.23;5.25;;;9.40;35.00;;;;;;5049938;28;20289;-89
2021/04/09 20:04:21;;;;;;;12.63;6.38;;;9.30;33.60;;;;;;5040690;28;20242;-87
2021/04/09 20:06:49;;;;;;;9.57;6.10;;;9.30;35.40;;;;;;5046862;28;20213;-88
2021/04/09 20:09:16;;;;;;;10.35;6.40;;;9.30;34.30;;;;;;5047168;28;20612;-88
2021/04/09 20:11:44;;;;;;;12.77;6.97;;;9.30;36.20;;;;;;5056588;28;20201;-89
2021/04/09 20:14:10;;;;;;;12.40;6.10;;;9.30;34.30;;;;;;5054597;28;20244;-89
2021/04/09 20:16:37;;;;;;;11.23;6.35;;;9.30;33.90;;;;;;5050869;28;20203;-88
2021/04/09 20:19:04;;;;;;;9.57;4.90;;;9.20;35.70;;;;;;5049815;28;20261;-88
2021/04/09 20:21:30;;;;;;;11.75;5.80;;;9.10;34.20;;;;;;5051358;28;20646;-88
2021/04/09 20:23:57;;;;;;;10.88;6.07;;;9.10;35.40;;;;;;5047452;28;20228;-87
2021/04/09 20:26:24;;;;;;;12.13;6.50;;;9.20;35.40;;;;;;5050124;28;20214;-87
2021/04/09 20:28:52;;;;;;;8.80;5.88;;;9.10;35.50;;;;;;5054817;28;20237;-88
2021/04/09 20:31:18;;;;;;;10.43;5.82;;;9.10;36.70;;;;;;5050165;28;20298;-87
2021/04/09 20:33:44;;;;;;;8.57;3.83;;;9.10;36.60;;;;;;5056552;28;20285;-87
2021/04/09 20:36:11;;;;;;;7.97;5.15;;;9.00;34.00;;;;;;5059548;28;20648;-88